Time;durP1;ratioP1;P1;durP2;ratioP2;P2;SDS_P1;SDS_P2;PMS_P1;PMS_P2;Temp;Humidity;BMP_temperature;BMP_pressure;BME280_temperature;BME280_humidity;BME280_pressure;Samples;Min_cycle;Max_cycle;Signal;HPM_P1;HPM_P2
2023/06/07 00:03:11;;;;;;;8.05;5.32;;;14.50;99.90;;;;;;7329859;32;20146;-54
2023/06/07 00:07:13;;;;;;;12.13;5.55;;;14.60;99.90;;;;;;7329258;32;20679;-55
2023/06/07 00:11:15;;;;;;;7.07;5.93;;;14.70;99.90;;;;;;7328555;32;20215;-54
2023/06/07 00:15:17;;;;;;;11.40;5.95;;;14.60;99.90;;;;;;7340104;32;20162;-55
2023/06/07 00:19:21;;;;;;;6.90;5.55;;;14.60;99.90;;;;;;7343472;32;20210;-55
2023/06/07 00:23:28;;;;;;;8.48;5.72;;;14.50;99.90;;;;;;7335871;32;20229;-55
2023/06/07 00:27:30;;;;;;;10.70;5.60;;;14.50;99.90;;;;;;7335163;32;20123;-55
2023/06/07 00:31:32;;;;;;;6.40;5.12;;;14.50;99.90;;;;;;7339193;32;20545;-55
2023/06/07 00:35:34;;;;;;;13.25;5.75;;;14.40;99.90;;;;;;7337583;32;20290;-55
2023/06/07 00:39:35;;;;;;;10.68;5.18;;;14.40;99.90;;;;;;7334836;32;20168;-55
2023/06/07 00:43:37;;;;;;;11.60;5.95;;;14.40;99.90;;;;;;7340129;32;20544;-55
2023/06/07 00:47:39;;;;;;;9.30;5.32;;;14.30;99.90;;;;;;7321500;32;20182;-55
2023/06/07 00:51:42;;;;;;;7.85;5.70;;;14.20;99.90;;;;;;7337081;32;20415;-55
2023/06/07 00:55:45;;;;;;;10.98;5.78;;;14.20;99.90;;;;;;7335780;32;20311;-57
2023/06/07 00:59:47;;;;;;;6.60;5.70;;;14.10;99.90;;;;;;7334484;32;20201;-56
2023/06/07 01:03:48;;;;;;;8.38;5.65;;;14.10;99.90;;;;;;7337773;32;20494;-55
2023/06/07 01:07:52;;;;;;;6.75;5.20;;;14.00;99.90;;;;;;7334575;32;20135;-57
2023/06/07 01:11:56;;;;;;;8.77;5.70;;;14.00;99.90;;;;;;7334204;32;20138;-56
2023/06/07 01:15:58;;;;;;;8.43;5.50;;;14.00;99.90;;;;;;7332979;32;20442;-56
2023/06/07 01:20:04;;;;;;;10.00;5.45;;;13.90;99.90;;;;;;7332724;32;20510;-56
2023/06/07 01:24:09;;;;;;;10.30;6.40;;;13.80;99.90;;;;;;7337125;32;20324;-56
2023/06/07 01:28:14;;;;;;;10.15;5.95;;;13.80;99.90;;;;;;7340779;32;20231;-55
2023/06/07 01:32:17;;;;;;;11.43;6.65;;;13.70;99.90;;;;;;7339246;32;20380;-55
2023/06/07 01:36:19;;;;;;;11.40;7.05;;;13.70;99.90;;;;;;7340106;32;20127;-56
2023/06/07 01:40:22;;;;;;;10.43;6.97;;;13.70;99.90;;;;;;7342115;32;20198;-56
2023/06/07 01:44:25;;;;;;;8.88;6.40;;;13.80;99.90;;;;;;7341834;32;20485;-54
2023/06/07 01:48:27;;;;;;;9.82;6.62;;;13.80;99.90;;;;;;7336508;32;20201;-55
2023/06/07 01:52:29;;;;;;;13.85;7.20;;;13.80;99.90;;;;;;7345264;32;20140;-56
2023/06/07 01:57:08;;;;;;;11.23;5.93;;;13.90;99.90;;;;;;7338253;32;20681;-56
2023/06/07 02:01:18;;;;;;;9.75;6.47;;;14.00;99.90;;;;;;7343537;32;20454;-55
2023/06/07 02:05:28;;;;;;;12.50;6.90;;;14.10;99.90;;;;;;7341533;32;20266;-56
2023/06/07 02:09:35;;;;;;;15.07;6.82;;;14.10;99.90;;;;;;7342874;32;20182;-55
2023/06/07 02:13:40;;;;;;;13.30;6.30;;;14.10;99.90;;;;;;7338588;32;20301;-56
2023/06/07 02:18:01;;;;;;;12.13;6.28;;;14.30;99.90;;;;;;7333740;32;20131;-55
2023/06/07 02:22:02;;;;;;;11.50;6.40;;;14.50;99.90;;;;;;7342411;32;20111;-56
2023/06/07 02:26:04;;;;;;;8.00;5.70;;;14.60;99.90;;;;;;7330416;32;20147;-55
2023/06/07 02:30:07;;;;;;;8.35;5.53;;;14.70;99.90;;;;;;7336852;32;20530;-56
2023/06/07 02:34:09;;;;;;;9.95;5.82;;;14.80;99.90;;;;;;7335215;32;20290;-56
2023/06/07 02:38:11;;;;;;;7.45;5.35;;;14.90;99.90;;;;;;7338719;32;20119;-55
2023/06/07 02:42:13;;;;;;;10.18;5.57;;;14.80;99.90;;;;;;7338224;32;20134;-56
2023/06/07 02:46:15;;;;;;;7.90;5.53;;;14.80;99.90;;;;;;7342154;32;20225;-55
2023/06/07 02:50:17;;;;;;;6.93;5.57;;;14.80;99.90;;;;;;7337919;32;20206;-56
2023/06/07 02:54:19;;;;;;;8.85;5.37;;;14.70;99.90;;;;;;7338546;32;20119;-55
2023/06/07 02:58:21;;;;;;;10.80;5.72;;;14.70;99.90;;;;;;7339803;32;20636;-56
2023/06/07 03:02:22;;;;;;;8.00;5.50;;;14.80;99.90;;;;;;7337060;32;20218;-56
2023/06/07 03:06:28;;;;;;;7.03;5.45;;;14.80;99.90;;;;;;7335514;32;20130;-56
2023/06/07 03:10:30;;;;;;;9.35;5.68;;;14.80;99.90;;;;;;7345788;32;20103;-55
2023/06/07 03:14:32;;;;;;;7.75;5.87;;;14.80;99.90;;;;;;7333558;32;20518;-54
2023/06/07 03:18:34;;;;;;;13.57;5.78;;;14.80;99.90;;;;;;7339662;32;20174;-57
2023/06/07 03:22:36;;;;;;;15.18;5.97;;;14.80;99.90;;;;;;7333502;32;20460;-56
2023/06/07 03:26:38;;;;;;;9.07;5.62;;;14.70;99.90;;;;;;7341752;32;20265;-56
2023/06/07 03:30:40;;;;;;;9.05;5.40;;;14.70;99.90;;;;;;7340535;32;20263;-55
2023/06/07 03:34:42;;;;;;;8.07;5.82;;;14.60;99.90;;;;;;7336370;32;20337;-56
2023/06/07 03:38:44;;;;;;;10.82;5.35;;;14.60;99.90;;;;;;7341460;32;20156;-55
2023/06/07 03:42:46;;;;;;;9.20;5.35;;;14.70;99.90;;;;;;7339476;32;20125;-55
2023/06/07 03:46:48;;;;;;;7.60;5.57;;;14.80;99.90;;;;;;7337104;32;20544;-56
2023/06/07 03:50:50;;;;;;;8.43;5.18;;;14.90;99.90;;;;;;7341076;32;20115;-56
2023/06/07 03:54:52;;;;;;;19.15;5.57;;;15.10;99.90;;;;;;7334417;32;20494;-56
2023/06/07 03:58:54;;;;;;;9.73;5.10;;;15.00;99.90;;;;;;7339302;32;20259;-55
2023/06/07 04:02:56;;;;;;;7.95;5.15;;;15.10;99.90;;;;;;7335033;32;20543;-55
2023/06/07 04:06:58;;;;;;;6.10;4.50;;;15.10;99.90;;;;;;7337742;32;20529;-56
2023/06/07 04:11:01;;;;;;;8.77;5.37;;;15.20;99.90;;;;;;7328377;32;20132;-56
2023/06/07 04:15:03;;;;;;;9.90;4.95;;;15.20;99.90;;;;;;7341803;32;20131;-55
2023/06/07 04:19:04;;;;;;;10.63;4.82;;;15.20;99.90;;;;;;7331504;32;20261;-56
2023/06/07 04:23:06;;;;;;;7.53;4.55;;;15.30;99.90;;;;;;7333771;32;20704;-56
2023/06/07 04:27:11;;;;;;;11.75;5.00;;;15.40;99.90;;;;;;7341046;32;20233;-57
2023/06/07 04:31:14;;;;;;;9.85;5.05;;;15.40;99.90;;;;;;7339150;32;20293;-55
2023/06/07 04:35:16;;;;;;;9.80;4.15;;;15.40;99.90;;;;;;7334443;32;20107;-56
2023/06/07 04:39:18;;;;;;;8.88;5.30;;;15.50;99.90;;;;;;7331200;32;20524;-55
2023/06/07 04:43:20;;;;;;;8.68;5.22;;;15.50;99.90;;;;;;7341637;32;20133;-55
2023/06/07 04:47:24;;;;;;;8.00;4.45;;;15.50;99.90;;;;;;7331648;32;20199;-55
2023/06/07 04:51:29;;;;;;;8.80;5.60;;;15.60;99.90;;;;;;7335711;32;20213;-57
2023/06/07 04:55:34;;;;;;;10.98;4.90;;;15.50;99.90;;;;;;7334986;32;20182;-57
2023/06/07 04:59:42;;;;;;;9.38;6.10;;;15.40;99.90;;;;;;7333437;32;20103;-56
2023/06/07 05:03:44;;;;;;;10.25;6.40;;;15.50;99.90;;;;;;7330441;32;20129;-57
2023/06/07 05:07:46;;;;;;;8.35;5.07;;;15.60;99.90;;;;;;7336380;32;20376;-57
2023/06/07 05:11:48;;;;;;;9.55;5.45;;;15.60;99.90;;;;;;7336407;32;20194;-57
2023/06/07 05:15:50;;;;;;;7.93;5.37;;;15.60;99.90;;;;;;7333985;32;20136;-56
2023/06/07 05:19:52;;;;;;;9.57;5.70;;;15.70;99.90;;;;;;7334594;32;20204;-57
2023/06/07 05:23:54;;;;;;;8.70;4.65;;;15.70;99.90;;;;;;7332125;32;20122;-57
2023/06/07 05:27:56;;;;;;;14.52;5.65;;;15.70;99.90;;;;;;7331436;32;22107;-57
2023/06/07 05:32:13;;;;;;;9.43;5.10;;;15.70;99.90;;;;;;7327457;32;20249;-56
2023/06/07 05:36:15;;;;;;;8.77;5.15;;;15.70;99.90;;;;;;7331387;32;20111;-56
2023/06/07 05:40:18;;;;;;;7.78;5.37;;;15.70;99.90;;;;;;7334551;32;20155;-59
2023/06/07 05:44:20;;;;;;;10.18;5.70;;;15.70;99.90;;;;;;7334657;32;20115;-58
2023/06/07 05:48:21;;;;;;;12.30;6.25;;;15.60;99.90;;;;;;7330845;32;20246;-57
2023/06/07 05:52:23;;;;;;;9.45;5.37;;;15.50;99.90;;;;;;7330740;32;20183;-57
2023/06/07 05:56:25;;;;;;;12.45;6.50;;;15.40;99.90;;;;;;7333016;32;20131;-59
2023/06/07 06:00:27;;;;;;;13.32;6.15;;;15.40;99.90;;;;;;7334515;32;20115;-59
2023/06/07 06:04:28;;;;;;;14.60;8.75;;;15.40;99.90;;;;;;7333028;32;20201;-57
2023/06/07 06:08:30;;;;;;;11.23;6.75;;;15.50;99.90;;;;;;7332279;32;20271;-57
2023/06/07 06:12:32;;;;;;;12.30;6.80;;;15.40;99.90;;;;;;7323872;32;20137;-57
2023/06/07 06:16:34;;;;;;;14.68;7.82;;;15.50;99.90;;;;;;7322174;32;20156;-56
2023/06/07 06:20:36;;;;;;;13.45;7.45;;;15.60;99.90;;;;;;7338498;32;20535;-57
2023/06/07 06:24:38;;;;;;;11.30;6.53;;;15.60;99.90;;;;;;7342963;32;20210;-57
2023/06/07 06:28:40;;;;;;;11.02;7.18;;;15.60;99.90;;;;;;7334055;32;20126;-57
2023/06/07 06:32:42;;;;;;;12.10;7.93;;;15.60;99.90;;;;;;7338529;32;20333;-57
2023/06/07 06:36:43;;;;;;;15.43;7.80;;;15.50;99.90;;;;;;7337528;32;20130;-56
2023/06/07 06:40:45;;;;;;;11.90;7.60;;;15.60;99.90;;;;;;7337070;32;20362;-57
2023/06/07 06:44:47;;;;;;;12.37;8.25;;;15.60;99.90;;;;;;7343990;32;20103;-57
2023/06/07 06:48:49;;;;;;;14.93;8.85;;;15.50;99.90;;;;;;7344921;32;20170;-57
2023/06/07 06:53:10;;;;;;;15.88;10.27;;;15.60;99.90;;;;;;7332541;32;20254;-57
2023/06/07 06:57:13;;;;;;;12.02;8.70;;;15.40;99.90;;;;;;7338233;32;20423;-57
2023/06/07 07:01:15;;;;;;;15.18;9.68;;;15.40;99.90;;;;;;7340252;32;20132;-56
2023/06/07 07:05:17;;;;;;;13.27;9.18;;;15.30;99.90;;;;;;7334050;32;20433;-57
2023/06/07 07:09:18;;;;;;;15.45;9.10;;;15.30;99.90;;;;;;7340838;32;20212;-57
2023/06/07 07:13:20;;;;;;;14.45;9.20;;;15.30;99.90;;;;;;7334866;32;20141;-57
2023/06/07 07:17:22;;;;;;;15.43;9.70;;;15.30;99.90;;;;;;7334122;32;20139;-57
2023/06/07 07:21:26;;;;;;;16.30;9.50;;;15.30;99.90;;;;;;7338817;32;20129;-56
2023/06/07 07:25:28;;;;;;;17.17;9.40;;;15.30;99.90;;;;;;7337031;32;20179;-56
2023/06/07 07:29:30;;;;;;;18.33;9.35;;;15.30;99.90;;;;;;7343711;32;20141;-57
2023/06/07 07:33:32;;;;;;;19.73;10.25;;;15.30;99.90;;;;;;7338703;32;20102;-56
2023/06/07 07:37:35;;;;;;;16.60;9.80;;;15.30;99.90;;;;;;7336569;32;20124;-56
2023/06/07 07:41:40;;;;;;;17.23;9.20;;;15.40;99.90;;;;;;7331858;32;20131;-56
2023/06/07 07:45:42;;;;;;;13.23;9.05;;;15.50;99.90;;;;;;7340773;32;20186;-56
2023/06/07 07:49:43;;;;;;;14.77;8.18;;;15.50;99.90;;;;;;7337972;32;20292;-56
2023/06/07 07:53:45;;;;;;;18.65;8.85;;;15.50;99.90;;;;;;7335807;32;20193;-56
2023/06/07 07:57:49;;;;;;;16.25;9.35;;;15.40;99.90;;;;;;7339092;32;20206;-57
2023/06/07 08:01:51;;;;;;;14.80;9.82;;;15.40;99.90;;;;;;7334555;32;20223;-56
2023/06/07 08:05:53;;;;;;;15.02;10.27;;;15.20;99.90;;;;;;7331691;32;20179;-57
2023/06/07 08:09:55;;;;;;;16.12;9.45;;;15.20;99.90;;;;;;7337020;32;20439;-56
2023/06/07 08:13:56;;;;;;;18.48;10.50;;;15.20;99.90;;;;;;7341018;32;20126;-57
2023/06/07 08:17:58;;;;;;;18.67;10.90;;;15.20;99.90;;;;;;7342553;32;20178;-56
2023/06/07 08:22:00;;;;;;;17.87;10.88;;;15.20;99.90;;;;;;7331645;32;20158;-56
2023/06/07 08:26:03;;;;;;;18.50;11.55;;;15.10;99.90;;;;;;7338405;32;20151;-56
2023/06/07 08:30:06;;;;;;;16.15;11.02;;;15.00;99.90;;;;;;7340571;32;20130;-55
2023/06/07 08:34:08;;;;;;;20.17;12.02;;;14.90;99.90;;;;;;7340092;32;20099;-57
2023/06/07 08:38:10;;;;;;;23.55;12.40;;;14.90;99.90;;;;;;7331678;32;20533;-57
2023/06/07 08:42:12;;;;;;;16.48;11.00;;;14.90;99.90;;;;;;7340311;32;20126;-56
2023/06/07 08:46:15;;;;;;;19.55;12.23;;;15.00;99.90;;;;;;7336884;32;20162;-56
2023/06/07 08:50:19;;;;;;;17.92;11.70;;;15.00;99.90;;;;;;7335914;32;20156;-57
2023/06/07 08:54:24;;;;;;;18.75;13.10;;;15.20;99.90;;;;;;7341163;32;20149;-56
2023/06/07 08:58:27;;;;;;;17.98;12.15;;;15.50;99.90;;;;;;7337776;32;20107;-57
2023/06/07 09:02:29;;;;;;;20.15;12.43;;;15.30;99.90;;;;;;7331271;32;20199;-56
2023/06/07 09:06:34;;;;;;;25.45;13.20;;;15.40;99.90;;;;;;7326593;32;20339;-56
2023/06/07 09:10:36;;;;;;;26.37;13.45;;;15.30;99.90;;;;;;7338414;32;20110;-56
2023/06/07 09:14:38;;;;;;;19.25;13.90;;;15.30;99.90;;;;;;7330958;32;20107;-56
2023/06/07 09:18:53;;;;;;;20.55;13.93;;;15.20;99.90;;;;;;7339264;32;20118;-55
2023/06/07 09:23:14;;;;;;;20.42;13.95;;;15.20;99.90;;;;;;7339184;32;20100;-55
2023/06/07 09:27:29;;;;;;;19.35;14.18;;;15.20;99.90;;;;;;7335451;32;20226;-55
2023/06/07 09:31:34;;;;;;;20.33;14.68;;;15.20;99.90;;;;;;7333730;32;20225;-56
2023/06/07 09:35:36;;;;;;;20.90;14.20;;;15.10;99.90;;;;;;7338872;32;20100;-55
2023/06/07 09:39:38;;;;;;;21.23;15.18;;;15.20;99.90;;;;;;7328445;32;20330;-56
2023/06/07 09:43:50;;;;;;;21.60;15.15;;;15.20;99.90;;;;;;7339850;32;20217;-56
2023/06/07 09:48:07;;;;;;;25.42;15.20;;;15.30;99.90;;;;;;7338341;32;20111;-56
2023/06/07 09:52:13;;;;;;;27.53;16.70;;;15.40;99.90;;;;;;7341921;32;20261;-55
2023/06/07 09:56:20;;;;;;;25.50;18.45;;;15.40;99.90;;;;;;7336285;32;20543;-56
2023/06/07 10:00:21;;;;;;;20.80;16.73;;;15.40;99.90;;;;;;7342767;32;20282;-55
2023/06/07 10:04:23;;;;;;;25.05;18.20;;;15.50;99.90;;;;;;7338514;32;20169;-55
2023/06/07 10:08:25;;;;;;;24.42;19.75;;;15.60;99.90;;;;;;7342548;32;20412;-55
2023/06/07 10:12:29;;;;;;;29.23;19.90;;;15.70;99.90;;;;;;7342009;32;20107;-57
2023/06/07 10:16:35;;;;;;;25.45;19.35;;;15.70;99.90;;;;;;7338956;32;20126;-56
2023/06/07 10:20:41;;;;;;;30.35;21.17;;;15.60;99.90;;;;;;7336962;32;20122;-56
2023/06/07 10:24:51;;;;;;;27.67;19.92;;;15.50;99.90;;;;;;7343092;32;20285;-56
2023/06/07 10:29:04;;;;;;;21.73;18.30;;;15.70;99.90;;;;;;7338363;32;20133;-56
2023/06/07 10:33:08;;;;;;;22.05;18.52;;;15.80;99.90;;;;;;7339486;32;20110;-55
2023/06/07 10:37:16;;;;;;;25.23;18.62;;;15.70;99.90;;;;;;7338012;32;20627;-55
2023/06/07 10:41:18;;;;;;;24.58;18.75;;;15.80;99.90;;;;;;7340723;32;20476;-57
2023/06/07 10:45:20;;;;;;;24.27;20.08;;;15.90;99.90;;;;;;7341097;32;20228;-56
2023/06/07 10:49:36;;;;;;;25.00;20.40;;;16.00;99.90;;;;;;7341947;32;20107;-55
2023/06/07 10:53:52;;;;;;;31.60;21.17;;;16.10;99.90;;;;;;7333164;32;20112;-56
2023/06/07 10:57:55;;;;;;;29.48;22.58;;;16.20;99.90;;;;;;7341107;32;20447;-57
2023/06/07 11:02:24;;;;;;;27.37;22.30;;;16.40;99.90;;;;;;7341088;32;20132;-57
2023/06/07 11:06:26;;;;;;;28.90;25.40;;;16.70;99.90;;;;;;7343550;32;20108;-56
2023/06/07 11:10:28;;;;;;;34.00;28.38;;;17.20;99.90;;;;;;7337408;32;20374;-56
2023/06/07 11:14:30;;;;;;;35.80;29.08;;;17.60;99.90;;;;;;7333566;32;20363;-57
2023/06/07 11:19:05;;;;;;;36.55;28.65;;;18.10;99.90;;;;;;7347608;32;20137;-56
2023/06/07 11:23:30;;;;;;;36.20;29.12;;;18.10;99.90;;;;;;7339202;32;20111;-56
2023/06/07 11:27:33;;;;;;;33.13;29.52;;;17.90;99.90;;;;;;7339393;32;20245;-56
2023/06/07 11:31:35;;;;;;;42.53;36.63;;;17.60;99.90;;;;;;7337908;32;20678;-56
2023/06/07 11:35:37;;;;;;;40.03;35.72;;;18.00;99.90;;;;;;7337988;32;20126;-56
2023/06/07 11:39:39;;;;;;;40.35;35.15;;;18.20;99.90;;;;;;7340074;32;20112;-56
2023/06/07 11:43:41;;;;;;;40.10;34.20;;;18.60;99.90;;;;;;7341671;32;20160;-55
2023/06/07 11:47:48;;;;;;;33.72;29.80;;;18.60;99.90;;;;;;7342494;32;20165;-55
2023/06/07 11:51:56;;;;;;;38.28;30.05;;;18.60;99.90;;;;;;7347242;32;20504;-56
2023/06/07 11:56:02;;;;;;;36.92;29.92;;;18.60;99.90;;;;;;7344019;32;20156;-56
2023/06/07 12:00:15;;;;;;;30.67;26.95;;;18.60;99.90;;;;;;7337110;32;20761;-55
2023/06/07 12:04:18;;;;;;;30.35;24.67;;;18.90;99.90;;;;;;7342946;32;20322;-56
2023/06/07 12:08:22;;;;;;;29.48;24.98;;;19.40;99.90;;;;;;7339444;32;20751;-55
2023/06/07 12:12:24;;;;;;;30.45;24.40;;;19.60;99.90;;;;;;7331188;32;20130;-57
2023/06/07 12:16:26;;;;;;;29.10;25.17;;;19.20;99.90;;;;;;7333566;32;20574;-56
2023/06/07 12:20:29;;;;;;;30.50;24.30;;;19.50;99.90;;;;;;7336800;32;20613;-56
2023/06/07 12:24:30;;;;;;;29.65;23.27;;;20.20;99.90;;;;;;7335598;32;20216;-56
2023/06/07 12:28:33;;;;;;;30.40;25.67;;;21.00;99.90;;;;;;7337807;32;20176;-56
2023/06/07 12:32:34;;;;;;;30.65;25.62;;;21.10;99.90;;;;;;7335739;32;20206;-56
2023/06/07 12:36:40;;;;;;;29.75;25.35;;;21.60;99.90;;;;;;7336316;32;20762;-57
2023/06/07 12:40:42;;;;;;;31.62;23.58;;;22.00;99.90;;;;;;7331674;32;20604;-56
2023/06/07 12:44:44;;;;;;;26.87;23.87;;;22.00;99.90;;;;;;7334308;32;20135;-57
2023/06/07 12:48:46;;;;;;;30.00;23.90;;;22.70;99.90;;;;;;7333770;32;20326;-56
2023/06/07 12:52:48;;;;;;;24.55;21.73;;;22.00;99.90;;;;;;7330791;32;20611;-57
2023/06/07 12:56:50;;;;;;;22.98;20.52;;;21.40;99.90;;;;;;7329956;32;20310;-57
2023/06/07 13:00:52;;;;;;;26.00;20.02;;;21.00;99.90;;;;;;7336744;32;20937;-57
2023/06/07 13:04:54;;;;;;;21.02;17.30;;;20.90;99.90;;;;;;7340612;32;20225;-57
2023/06/07 13:09:14;;;;;;;18.50;15.82;;;21.00;99.90;;;;;;7336519;32;20151;-58
2023/06/07 13:13:16;;;;;;;18.05;13.55;;;21.20;99.90;;;;;;7330004;32;20189;-57
2023/06/07 13:17:19;;;;;;;19.27;13.73;;;21.90;99.90;;;;;;7336328;32;20133;-57
2023/06/07 13:21:21;;;;;;;18.80;12.75;;;21.60;99.90;;;;;;7332913;32;20861;-57
2023/06/07 13:25:23;;;;;;;14.63;12.52;;;21.80;99.90;;;;;;7331057;32;20194;-56
2023/06/07 13:29:25;;;;;;;19.65;13.68;;;21.30;99.90;;;;;;7333914;32;20133;-56
2023/06/07 13:33:27;;;;;;;14.95;13.00;;;21.30;99.90;;;;;;7339966;32;20599;-56
2023/06/07 13:37:29;;;;;;;18.73;13.98;;;20.60;99.90;;;;;;7341158;32;20112;-56
2023/06/07 13:41:30;;;;;;;17.80;12.63;;;20.30;99.90;;;;;;7345079;32;20528;-57
2023/06/07 13:45:32;;;;;;;17.33;13.30;;;20.40;99.90;;;;;;7338350;32;20283;-56
2023/06/07 13:49:34;;;;;;;22.98;18.52;;;20.40;99.90;;;;;;7332980;32;20138;-56
2023/06/07 13:53:36;;;;;;;16.00;12.95;;;20.50;99.90;;;;;;7349314;32;20107;-55
2023/06/07 13:57:38;;;;;;;19.20;11.70;;;20.40;99.90;;;;;;7339225;32;20112;-57
2023/06/07 14:01:41;;;;;;;14.95;11.82;;;20.60;99.90;;;;;;7343598;32;20184;-56
2023/06/07 14:05:43;;;;;;;15.70;13.93;;;20.60;99.90;;;;;;7331417;32;20186;-56
2023/06/07 14:09:46;;;;;;;17.35;13.52;;;20.70;99.90;;;;;;7333567;32;20156;-56
2023/06/07 14:13:47;;;;;;;18.25;12.50;;;20.70;99.90;;;;;;7332262;32;20123;-57
2023/06/07 14:17:49;;;;;;;17.35;15.32;;;20.60;99.90;;;;;;7336250;32;20138;-56
2023/06/07 14:21:51;;;;;;;15.23;12.77;;;20.40;99.90;;;;;;7333275;32;20295;-56
2023/06/07 14:25:53;;;;;;;16.98;13.07;;;21.30;99.90;;;;;;7336181;32;20119;-54
2023/06/07 14:29:54;;;;;;;18.62;14.82;;;21.60;99.90;;;;;;7333342;32;20277;-54
2023/06/07 14:33:56;;;;;;;16.17;14.45;;;22.30;99.90;;;;;;7339562;32;20518;-56
2023/06/07 14:37:58;;;;;;;14.15;12.52;;;22.30;99.90;;;;;;7338413;32;20694;-56
2023/06/07 14:42:00;;;;;;;16.37;13.27;;;22.90;99.90;;;;;;7341182;32;20107;-56
2023/06/07 14:46:02;;;;;;;15.30;13.48;;;23.40;99.90;;;;;;7336539;32;20095;-55
2023/06/07 14:50:04;;;;;;;23.50;18.20;;;22.70;99.90;;;;;;7340812;32;20157;-54
2023/06/07 14:54:06;;;;;;;17.98;16.08;;;21.70;99.90;;;;;;7339155;32;20099;-54
2023/06/07 14:58:08;;;;;;;20.30;16.25;;;22.40;99.90;;;;;;7336859;32;20242;-55
2023/06/07 15:02:12;;;;;;;19.92;17.83;;;22.80;99.90;;;;;;7334749;32;20279;-54
2023/06/07 15:06:14;;;;;;;19.08;17.20;;;22.80;99.90;;;;;;7331023;32;20713;-56
2023/06/07 15:10:16;;;;;;;17.48;15.65;;;23.20;99.90;;;;;;7331101;32;20601;-56
2023/06/07 15:14:17;;;;;;;17.00;14.45;;;23.10;99.90;;;;;;7331056;32;20122;-57
2023/06/07 15:18:20;;;;;;;16.30;14.57;;;24.50;99.90;;;;;;7332086;32;20223;-56
2023/06/07 15:22:22;;;;;;;19.17;15.30;;;24.10;99.90;;;;;;7335386;32;20111;-56
2023/06/07 15:26:24;;;;;;;15.25;13.75;;;23.50;99.90;;;;;;7334663;32;20120;-57
2023/06/07 15:30:26;;;;;;;13.70;12.32;;;23.10;99.90;;;;;;7335592;32;20214;-63
2023/06/07 15:34:30;;;;;;;16.58;14.87;;;22.90;99.90;;;;;;7337560;32;20276;-57
2023/06/07 15:38:37;;;;;;;16.83;14.87;;;22.50;99.90;;;;;;7339177;32;20122;-56
2023/06/07 15:42:38;;;;;;;16.45;14.85;;;22.00;99.90;;;;;;7332115;32;20133;-56
2023/06/07 15:46:40;;;;;;;14.75;13.20;;;21.60;99.90;;;;;;7334711;32;20206;-61
2023/06/07 15:50:42;;;;;;;14.75;12.05;;;21.70;99.90;;;;;;7336877;32;20127;-63
2023/06/07 15:54:44;;;;;;;14.60;11.73;;;21.90;99.90;;;;;;7332044;32;20127;-61
2023/06/07 15:58:46;;;;;;;20.88;14.70;;;22.30;99.90;;;;;;7339573;32;20111;-60
2023/06/07 16:02:50;;;;;;;14.87;12.37;;;21.90;99.90;;;;;;7338527;32;20125;-56
2023/06/07 16:06:52;;;;;;;15.02;12.80;;;21.80;99.90;;;;;;7337855;32;20116;-57
2023/06/07 16:10:53;;;;;;;15.02;11.43;;;21.90;99.90;;;;;;7338359;32;20119;-57
2023/06/07 16:14:56;;;;;;;13.93;12.30;;;22.00;99.90;;;;;;7334948;32;20177;-56
2023/06/07 16:18:57;;;;;;;12.85;11.38;;;22.30;99.90;;;;;;7335769;32;20231;-56
2023/06/07 16:23:00;;;;;;;13.10;11.38;;;22.20;99.90;;;;;;7337352;32;20570;-57
2023/06/07 16:27:02;;;;;;;17.87;12.88;;;22.20;99.90;;;;;;7339691;32;20100;-56
2023/06/07 16:31:03;;;;;;;13.85;11.80;;;22.30;99.90;;;;;;7336627;32;20099;-56
2023/06/07 16:35:05;;;;;;;14.00;11.60;;;22.10;99.90;;;;;;7338377;32;20639;-57
2023/06/07 16:39:08;;;;;;;14.95;12.15;;;22.00;99.90;;;;;;7336897;32;20247;-56
2023/06/07 16:43:09;;;;;;;11.25;10.10;;;21.90;99.90;;;;;;7338034;32;20128;-56
2023/06/07 16:47:11;;;;;;;9.20;8.00;;;21.70;99.90;;;;;;7338346;32;20227;-56
2023/06/07 16:51:13;;;;;;;11.02;9.82;;;21.30;99.90;;;;;;7337637;32;20572;-56
2023/06/07 16:55:15;;;;;;;11.98;9.27;;;20.50;99.90;;;;;;7335747;32;20238;-56
2023/06/07 16:59:17;;;;;;;14.85;9.38;;;20.00;99.90;;;;;;7336570;32;20155;-57
2023/06/07 17:03:19;;;;;;;11.77;10.57;;;19.70;99.90;;;;;;7333634;32;20180;-57
2023/06/07 17:07:21;;;;;;;11.70;9.98;;;19.30;99.90;;;;;;7336559;32;20226;-59
2023/06/07 17:11:23;;;;;;;11.82;10.23;;;19.10;99.90;;;;;;7336427;32;20757;-57
2023/06/07 17:15:25;;;;;;;12.80;10.88;;;19.00;99.90;;;;;;7334011;32;20213;-56
2023/06/07 17:19:27;;;;;;;13.65;12.07;;;19.00;99.90;;;;;;7332516;32;20192;-57
2023/06/07 17:23:28;;;;;;;14.18;12.60;;;18.90;99.90;;;;;;7325832;32;20116;-56
2023/06/07 17:27:30;;;;;;;14.87;11.68;;;18.60;99.90;;;;;;7334135;32;20102;-56
2023/06/07 17:31:32;;;;;;;13.70;12.27;;;18.60;99.90;;;;;;7334807;32;20603;-56
2023/06/07 17:35:34;;;;;;;13.93;12.52;;;18.50;99.90;;;;;;7331888;32;20103;-56
2023/06/07 17:39:36;;;;;;;13.20;11.88;;;18.50;99.90;;;;;;7335517;32;20586;-56
2023/06/07 17:43:38;;;;;;;14.27;11.38;;;18.50;99.90;;;;;;7339243;32;20479;-56
2023/06/07 17:47:48;;;;;;;12.35;10.98;;;18.60;99.90;;;;;;7325529;32;20286;-55
2023/06/07 17:51:52;;;;;;;14.25;11.45;;;18.60;99.90;;;;;;7333916;32;20137;-55
2023/06/07 17:55:53;;;;;;;11.65;10.50;;;18.60;99.90;;;;;;7329206;32;20111;-56
2023/06/07 17:59:55;;;;;;;12.75;11.55;;;18.50;99.90;;;;;;7338071;32;20581;-56
2023/06/07 18:03:57;;;;;;;13.48;12.18;;;18.50;99.90;;;;;;7341237;32;20790;-56
2023/06/07 18:07:59;;;;;;;36.55;32.40;;;18.50;99.90;;;;;;7337906;32;20359;-56
2023/06/07 18:12:01;;;;;;;17.02;15.23;;;18.60;99.90;;;;;;7341769;32;20530;-56
2023/06/07 18:16:03;;;;;;;16.55;14.23;;;18.60;99.90;;;;;;7344324;32;20246;-56
2023/06/07 18:20:06;;;;;;;16.10;13.45;;;18.70;99.90;;;;;;7338671;32;20203;-55
2023/06/07 18:24:08;;;;;;;14.48;12.90;;;18.60;99.90;;;;;;7345617;32;20707;-56
2023/06/07 18:28:10;;;;;;;14.40;12.93;;;18.50;99.90;;;;;;7340194;32;20270;-56
2023/06/07 18:32:12;;;;;;;13.45;12.07;;;18.70;99.90;;;;;;7334324;32;20217;-56
2023/06/07 18:36:13;;;;;;;15.30;12.98;;;18.50;99.90;;;;;;7341543;32;20139;-57
2023/06/07 18:40:15;;;;;;;15.60;12.95;;;18.60;99.90;;;;;;7343068;32;20178;-56
2023/06/07 18:44:17;;;;;;;14.02;12.50;;;18.60;99.90;;;;;;7339158;32;20549;-57
2023/06/07 18:48:20;;;;;;;15.27;12.57;;;18.70;99.90;;;;;;7341168;32;20253;-57
2023/06/07 18:52:22;;;;;;;25.98;21.42;;;18.70;99.90;;;;;;7346115;32;20104;-56
2023/06/07 18:56:25;;;;;;;16.60;13.25;;;18.90;99.90;;;;;;7338143;32;20186;-57
2023/06/07 19:00:27;;;;;;;13.98;11.70;;;18.80;99.90;;;;;;7334826;32;20769;-56
2023/06/07 19:04:29;;;;;;;15.57;12.15;;;18.90;99.90;;;;;;7334067;32;20428;-57
2023/06/07 19:08:32;;;;;;;15.35;11.68;;;18.90;99.90;;;;;;7337134;32;20103;-56
2023/06/07 19:12:34;;;;;;;14.38;12.85;;;18.80;99.90;;;;;;7327344;32;20164;-55
2023/06/07 19:16:36;;;;;;;13.77;12.37;;;18.80;99.90;;;;;;7339838;32;20126;-56
2023/06/07 19:20:38;;;;;;;16.02;11.43;;;18.70;99.90;;;;;;7339679;32;20111;-56
2023/06/07 19:24:42;;;;;;;11.77;10.55;;;18.70;99.90;;;;;;7336158;32;20131;-56
2023/06/07 19:28:44;;;;;;;13.85;10.73;;;18.60;99.90;;;;;;7338974;32;20107;-57
2023/06/07 19:32:46;;;;;;;12.50;10.60;;;18.50;99.90;;;;;;7341330;32;20103;-56
2023/06/07 19:36:48;;;;;;;14.23;11.45;;;18.40;99.90;;;;;;7341591;32;20248;-56
2023/06/07 19:40:50;;;;;;;16.00;10.95;;;18.30;99.90;;;;;;7343284;32;20146;-56
2023/06/07 19:44:51;;;;;;;13.05;11.75;;;18.30;99.90;;;;;;7338943;32;20228;-56
2023/06/07 19:48:53;;;;;;;13.35;11.30;;;18.10;99.90;;;;;;7337637;32;20115;-57
2023/06/07 19:52:55;;;;;;;16.42;14.73;;;18.00;99.90;;;;;;7339682;32;20161;-56
2023/06/07 19:56:57;;;;;;;17.67;15.88;;;17.90;99.90;;;;;;7334411;32;20138;-57
2023/06/07 20:00:58;;;;;;;16.90;15.32;;;17.90;99.90;;;;;;7342622;32;20145;-55
2023/06/07 20:05:00;;;;;;;19.45;17.55;;;17.80;99.90;;;;;;7344047;32;20212;-55
2023/06/07 20:09:02;;;;;;;19.67;17.77;;;17.70;99.90;;;;;;7335031;32;20342;-55
2023/06/07 20:13:04;;;;;;;18.05;16.08;;;17.50;99.90;;;;;;7337385;32;20095;-55
2023/06/07 20:17:09;;;;;;;16.15;14.50;;;17.50;99.90;;;;;;7340403;32;20169;-55
2023/06/07 20:21:11;;;;;;;18.20;15.07;;;17.50;99.90;;;;;;7335328;32;20411;-55
2023/06/07 20:25:15;;;;;;;16.87;15.13;;;17.40;99.90;;;;;;7343068;32;20107;-56
2023/06/07 20:29:17;;;;;;;17.05;15.25;;;17.40;99.90;;;;;;7334268;32;20261;-56
2023/06/07 20:33:19;;;;;;;19.02;16.42;;;17.30;99.90;;;;;;7337330;32;20110;-55
2023/06/07 20:37:21;;;;;;;17.25;15.20;;;17.20;99.90;;;;;;7341118;32;20500;-56
2023/06/07 20:41:22;;;;;;;20.23;17.00;;;17.10;99.90;;;;;;7336764;32;20306;-55
2023/06/07 20:45:25;;;;;;;18.73;16.92;;;17.10;99.90;;;;;;7342585;32;20165;-55